Startpagina
METAR-TAF:

METAR-TAF

Vliegvelden :

Vliegbasis Leeuwarden

Leeuwarden, Nederland

breedte: 53-13N, lengte: 005-46E, hoogte: 1 m

Actueel weer

Dit bericht is 22 minuten geleden gemaakt, om 21:55 UTC
Wind 6 kt uit het oostnoordoosten, variërend tussen het noorden en het zuidoosten
Temperatuur 17°C
Vochtigheid 82%
Druk 1013 hPa
Zicht 10 km of meer

METAR: EHLW 162155Z AUTO 07006KT 360V130 9999 NCD 17/14 Q1013 BLU

Tijdstip: 00:17 (22:17 UTC)

Verwachting

Dit bericht is 9 uur en het 31 minuten geleden gemaakt, om 12:46 UTC
Verwachting geldig van 16 om 13 UTC tot 17 om 01 UTC
Wind 8 kt uit het oosten
Zicht 10 km of meer
geen wolken onder 1500 m en geen cumulonimbus

TAF: EHLW 161246Z 1613/1701 09008KT CAVOK

Waarnemingen en weersverwachtingen van meer dan 4000 vliegvelden (METAR en TAF).

De beschikbare stations zijn de gele en rode punten op de kaart.

Ga met uw muis naar het station om de naam te zien.

Klik dan om waarnemingen en weersverwachtingen te zien.

kaart wijzigen: klik op de groene knoppen met een zwart kruis om in te zoomen, op de groene knop met een streepje om uit te zoomen of op de groene pijlen voor aangrenzende kaarten.


METAR-TAF: